Time;durP1;ratioP1;P1;durP2;ratioP2;P2;SDS_P1;SDS_P2;PMS_P1;PMS_P2;Temp;Humidity;BMP_temperature;BMP_pressure;BME280_temperature;BME280_humidity;BME280_pressure;Samples;Min_cycle;Max_cycle;Signal;HPM_P1;HPM_P2
2021/10/10 00:00:50;;;;;;;24.55;17.25;;;10.10;99.90;;;;;;4975858;28;20022;-40
2021/10/10 00:03:15;;;;;;;24.08;16.00;;;10.10;99.90;;;;;;4987364;28;20087;-39
2021/10/10 00:05:41;;;;;;;22.35;16.10;;;10.00;99.90;;;;;;4975228;28;20058;-39
2021/10/10 00:08:07;;;;;;;25.08;16.85;;;10.00;99.90;;;;;;4987284;28;20537;-37
2021/10/10 00:10:32;;;;;;;21.13;16.60;;;10.00;99.90;;;;;;4974683;28;20030;-39
2021/10/10 00:12:59;;;;;;;23.10;16.08;;;10.00;99.90;;;;;;4988096;28;20150;-43
2021/10/10 00:15:25;;;;;;;19.27;14.80;;;9.90;99.90;;;;;;4975296;28;20023;-39
2021/10/10 00:17:51;;;;;;;22.42;16.23;;;9.90;99.90;;;;;;4986362;28;20074;-39
2021/10/10 00:20:17;;;;;;;24.20;16.48;;;9.90;99.90;;;;;;4979258;28;20062;-41
2021/10/10 00:22:43;;;;;;;21.88;16.42;;;9.90;99.90;;;;;;4986273;28;20026;-42
2021/10/10 00:25:09;;;;;;;21.02;16.45;;;9.90;99.90;;;;;;4985003;28;20042;-40
2021/10/10 00:27:36;;;;;;;21.15;15.63;;;9.90;99.90;;;;;;4986127;28;20385;-39
2021/10/10 00:30:06;;;;;;;22.50;16.10;;;9.90;99.90;;;;;;4986413;28;20095;-38
2021/10/10 00:32:32;;;;;;;20.88;15.32;;;9.90;99.90;;;;;;4983465;28;20067;-38
2021/10/10 00:34:57;;;;;;;23.35;16.40;;;9.90;99.90;;;;;;4990028;28;20355;-38
2021/10/10 00:37:24;;;;;;;23.52;17.00;;;9.90;99.90;;;;;;4982811;28;20548;-41
2021/10/10 00:39:50;;;;;;;25.63;18.25;;;9.80;99.90;;;;;;4989701;28;20198;-40
2021/10/10 00:42:16;;;;;;;22.63;16.77;;;9.80;99.90;;;;;;4980901;28;20461;-40
2021/10/10 00:44:46;;;;;;;28.02;18.27;;;9.80;99.90;;;;;;4989180;28;20042;-39
2021/10/10 00:47:12;;;;;;;23.30;16.55;;;9.80;99.90;;;;;;4982407;28;20114;-41
2021/10/10 00:49:38;;;;;;;23.80;17.38;;;9.80;99.90;;;;;;4971403;28;20554;-39
2021/10/10 00:52:05;;;;;;;22.90;16.95;;;9.80;99.90;;;;;;4982947;28;20038;-42
2021/10/10 00:54:32;;;;;;;22.02;16.75;;;9.70;99.90;;;;;;4970836;28;20539;-39
2021/10/10 00:57:00;;;;;;;24.52;17.80;;;9.70;99.90;;;;;;4984073;28;20030;-38
2021/10/10 00:59:26;;;;;;;24.70;17.65;;;9.60;99.90;;;;;;4971223;28;20026;-39
2021/10/10 01:01:52;;;;;;;25.15;18.38;;;9.60;99.90;;;;;;4981993;28;20530;-39
2021/10/10 01:04:18;;;;;;;25.30;18.63;;;9.60;99.90;;;;;;4972374;28;20149;-38
2021/10/10 01:06:43;;;;;;;27.15;18.85;;;9.60;99.90;;;;;;4978946;28;20064;-39
2021/10/10 01:09:16;;;;;;;25.30;17.52;;;9.50;99.90;;;;;;4975770;28;20066;-40
2021/10/10 01:11:42;;;;;;;;;;;9.50;99.90;;;;;;4977461;28;20429;-40
2021/10/10 01:14:09;;;;;;;24.85;17.95;;;9.50;99.90;;;;;;4976621;28;19910;-38
2021/10/10 01:16:35;;;;;;;22.45;17.90;;;9.40;99.90;;;;;;4974352;28;20053;-37
2021/10/10 01:19:01;;;;;;;26.08;17.88;;;9.40;99.90;;;;;;4978582;28;20027;-39
2021/10/10 01:21:26;;;;;;;24.67;18.30;;;9.40;99.90;;;;;;4971893;28;20029;-40
2021/10/10 01:23:52;;;;;;;24.05;17.27;;;9.40;99.90;;;;;;4981317;28;20043;-39
2021/10/10 01:26:19;;;;;;;23.95;17.50;;;9.30;99.90;;;;;;4971950;28;20109;-38
2021/10/10 01:28:45;;;;;;;24.63;17.27;;;9.30;99.90;;;;;;4981537;28;20098;-40
2021/10/10 01:31:11;;;;;;;23.05;15.82;;;9.20;99.90;;;;;;4971003;28;20027;-42
2021/10/10 01:33:37;;;;;;;20.08;15.15;;;9.20;99.90;;;;;;4981160;28;20030;-42
2021/10/10 01:36:03;;;;;;;20.05;15.25;;;9.20;99.90;;;;;;4971340;28;20037;-44
2021/10/10 01:38:29;;;;;;;23.05;16.40;;;9.10;99.90;;;;;;4977392;28;20035;-40
2021/10/10 01:40:55;;;;;;;21.95;16.92;;;9.10;99.90;;;;;;4990302;28;20026;-40
2021/10/10 01:43:21;;;;;;;22.65;18.83;;;9.10;99.90;;;;;;4978048;28;20049;-42
2021/10/10 01:45:46;;;;;;;24.58;18.05;;;9.10;99.90;;;;;;4988734;28;20035;-40
2021/10/10 01:48:12;;;;;;;26.08;18.10;;;9.10;99.90;;;;;;4980325;28;20019;-40
2021/10/10 01:50:38;;;;;;;23.95;17.77;;;9.00;99.90;;;;;;4986339;28;20398;-39
2021/10/10 01:53:04;;;;;;;22.88;16.90;;;9.00;99.90;;;;;;4983560;28;20034;-42
2021/10/10 01:55:30;;;;;;;27.95;18.58;;;9.00;99.90;;;;;;4982485;28;20029;-43
2021/10/10 01:57:56;;;;;;;23.20;17.42;;;9.00;99.90;;;;;;4986414;28;20031;-41
2021/10/10 02:00:21;;;;;;;24.02;17.48;;;9.00;99.90;;;;;;4980626;28;20018;-39
2021/10/10 02:02:47;;;;;;;23.90;17.48;;;9.00;99.90;;;;;;4987696;28;20022;-40
2021/10/10 02:05:13;;;;;;;22.95;17.40;;;8.90;99.90;;;;;;4979363;28;20085;-39
2021/10/10 02:07:39;;;;;;;22.50;17.27;;;8.90;99.90;;;;;;4986660;28;20038;-40
2021/10/10 02:10:07;;;;;;;25.85;18.48;;;8.90;99.90;;;;;;4978626;28;20034;-41
2021/10/10 02:12:32;;;;;;;22.67;17.73;;;8.90;99.90;;;;;;4989299;28;20026;-39
2021/10/10 02:14:58;;;;;;;24.15;18.65;;;8.90;99.90;;;;;;4976749;28;20589;-42
2021/10/10 02:17:23;;;;;;;26.77;18.52;;;8.90;99.90;;;;;;4989032;28;20029;-40
2021/10/10 02:19:49;;;;;;;26.45;18.63;;;8.90;99.90;;;;;;4976673;28;20127;-38
2021/10/10 02:22:14;;;;;;;25.27;17.85;;;8.90;99.90;;;;;;4988995;28;20335;-39
2021/10/10 02:24:40;;;;;;;23.40;17.13;;;8.80;99.90;;;;;;4977729;28;20039;-39
2021/10/10 02:27:05;;;;;;;24.27;17.90;;;8.80;99.90;;;;;;4988249;28;20152;-39
2021/10/10 02:29:31;;;;;;;26.63;19.15;;;8.80;99.90;;;;;;4979666;28;20034;-42
2021/10/10 02:31:57;;;;;;;29.27;19.42;;;8.80;99.90;;;;;;4985406;28;20023;-43
2021/10/10 02:34:22;;;;;;;24.77;19.02;;;8.80;99.90;;;;;;4982894;28;20022;-39
2021/10/10 02:36:48;;;;;;;25.52;18.38;;;8.70;99.90;;;;;;4976313;28;20741;-38
2021/10/10 02:39:13;;;;;;;26.95;19.27;;;8.70;99.90;;;;;;4973073;28;20126;-38
2021/10/10 02:41:39;;;;;;;24.38;18.77;;;8.70;99.90;;;;;;4978007;28;20023;-40
2021/10/10 02:44:05;;;;;;;23.73;19.10;;;8.70;99.90;;;;;;4969215;28;20105;-40
2021/10/10 02:46:31;;;;;;;26.17;18.92;;;8.70;99.90;;;;;;4979764;28;20072;-41
2021/10/10 02:48:56;;;;;;;25.70;19.35;;;8.70;99.90;;;;;;4970656;28;20446;-39
2021/10/10 02:51:22;;;;;;;26.00;18.63;;;8.60;99.90;;;;;;4979561;28;20027;-38
2021/10/10 02:53:48;;;;;;;26.25;19.25;;;8.60;99.90;;;;;;4969571;28;20034;-39
2021/10/10 02:56:13;;;;;;;27.73;20.13;;;8.60;99.90;;;;;;4981329;28;20023;-39
2021/10/10 02:58:40;;;;;;;28.10;19.85;;;8.60;99.90;;;;;;4967953;28;20041;-39
2021/10/10 03:01:06;;;;;;;26.05;18.92;;;8.60;99.90;;;;;;4981306;28;20018;-41
2021/10/10 03:03:31;;;;;;;24.88;19.20;;;8.60;99.90;;;;;;4968823;28;20031;-39
2021/10/10 03:05:57;;;;;;;25.50;18.60;;;8.60;99.90;;;;;;4978293;28;20056;-39
2021/10/10 03:08:22;;;;;;;27.10;19.42;;;8.50;99.90;;;;;;4970948;28;20054;-39
2021/10/10 03:10:48;;;;;;;27.02;20.08;;;8.50;99.90;;;;;;4973082;28;20593;-39
2021/10/10 03:13:13;;;;;;;25.02;19.30;;;8.50;99.90;;;;;;4984036;28;20030;-38
2021/10/10 03:15:39;;;;;;;26.60;19.63;;;8.50;99.90;;;;;;4982722;28;20062;-42
2021/10/10 03:18:05;;;;;;;26.83;19.83;;;8.50;99.90;;;;;;4980909;28;20037;-45
2021/10/10 03:20:31;;;;;;;28.02;19.38;;;8.50;99.90;;;;;;4985387;28;20546;-38
2021/10/10 03:22:57;;;;;;;25.08;18.92;;;8.50;99.90;;;;;;4978328;28;20462;-40
2021/10/10 03:25:23;;;;;;;25.13;18.83;;;8.40;99.90;;;;;;4985855;28;20035;-40
2021/10/10 03:27:48;;;;;;;25.52;19.75;;;8.40;99.90;;;;;;4977273;28;20050;-40
2021/10/10 03:30:14;;;;;;;27.17;19.38;;;8.40;99.90;;;;;;4986833;28;20470;-39
2021/10/10 03:32:39;;;;;;;26.52;19.73;;;8.40;99.90;;;;;;4975670;28;20033;-45
2021/10/10 03:35:06;;;;;;;26.73;20.58;;;8.40;99.90;;;;;;4988450;28;20030;-42
2021/10/10 03:37:35;;;;;;;27.63;20.63;;;8.40;99.90;;;;;;4983462;28;20045;-45
2021/10/10 03:40:01;;;;;;;27.70;19.98;;;8.40;99.90;;;;;;4987356;28;20022;-40
2021/10/10 03:42:27;;;;;;;27.27;19.83;;;8.40;99.90;;;;;;4982191;28;20023;-39
2021/10/10 03:44:52;;;;;;;25.73;19.70;;;8.30;99.90;;;;;;4968690;28;20038;-40
2021/10/10 03:47:18;;;;;;;24.50;18.55;;;8.30;99.90;;;;;;4977351;28;20023;-39
2021/10/10 03:49:43;;;;;;;26.58;19.38;;;8.30;99.90;;;;;;4970675;28;20042;-42
2021/10/10 03:52:09;;;;;;;25.15;19.02;;;8.30;99.90;;;;;;4975996;28;20508;-39
2021/10/10 03:55:07;;;;;;;29.33;20.27;;;8.30;99.90;;;;;;4972232;28;20037;-38
2021/10/10 03:57:27;;;;;;;25.27;18.88;;;8.30;99.90;;;;;;4971503;28;20035;-39
2021/10/10 03:59:56;;;;;;;27.77;19.88;;;8.30;99.90;;;;;;4984254;28;20703;-43
2021/10/10 04:02:22;;;;;;;26.17;20.05;;;8.30;99.90;;;;;;4981359;28;20023;-40
2021/10/10 04:04:47;;;;;;;26.90;20.52;;;8.30;99.90;;;;;;4980969;28;20062;-39
2021/10/10 04:07:15;;;;;;;25.05;19.98;;;8.20;99.90;;;;;;4983287;28;20133;-39
2021/10/10 04:09:40;;;;;;;27.88;19.75;;;8.30;99.90;;;;;;4978662;28;20030;-38
2021/10/10 04:12:06;;;;;;;27.73;20.33;;;8.30;99.90;;;;;;4986136;28;20037;-38
2021/10/10 04:14:32;;;;;;;25.35;18.83;;;8.20;99.90;;;;;;4975967;28;20069;-39
2021/10/10 04:16:57;;;;;;;26.58;20.75;;;8.20;99.90;;;;;;4985842;28;20423;-40
2021/10/10 04:19:23;;;;;;;25.02;20.35;;;8.20;99.90;;;;;;4976278;28;20034;-39
2021/10/10 04:21:48;;;;;;;27.48;19.23;;;8.20;99.90;;;;;;4986390;28;20038;-39
2021/10/10 04:24:14;;;;;;;29.48;20.33;;;8.20;99.90;;;;;;4975438;28;20038;-40
2021/10/10 04:26:39;;;;;;;30.65;19.70;;;8.10;99.90;;;;;;4986833;28;20073;-38
2021/10/10 04:29:05;;;;;;;26.00;19.83;;;8.10;99.90;;;;;;4974466;28;20062;-42
2021/10/10 04:31:30;;;;;;;24.88;20.27;;;8.10;99.90;;;;;;4987162;28;20022;-40
2021/10/10 04:33:56;;;;;;;26.45;20.23;;;8.10;99.90;;;;;;4977013;28;20038;-41
2021/10/10 04:36:21;;;;;;;26.05;19.33;;;8.10;99.90;;;;;;4983382;28;20116;-40
2021/10/10 04:38:46;;;;;;;23.58;19.38;;;8.00;99.90;;;;;;4975472;28;20054;-38
2021/10/10 04:41:12;;;;;;;25.58;19.85;;;8.00;99.90;;;;;;4972432;28;20070;-41
2021/10/10 04:43:38;;;;;;;27.50;20.25;;;8.00;99.90;;;;;;4971927;28;20042;-40
2021/10/10 04:46:04;;;;;;;25.52;19.52;;;8.00;99.90;;;;;;4974302;28;20033;-38
2021/10/10 04:48:29;;;;;;;27.83;20.13;;;8.00;99.90;;;;;;4970165;28;20466;-39
2021/10/10 04:50:55;;;;;;;26.52;19.35;;;7.90;99.90;;;;;;4976810;28;20125;-39
2021/10/10 04:53:20;;;;;;;26.25;19.48;;;7.90;99.90;;;;;;4969196;28;20029;-38
2021/10/10 04:55:45;;;;;;;27.05;20.23;;;7.90;99.90;;;;;;4977729;28;20436;-42
2021/10/10 04:58:11;;;;;;;26.88;20.30;;;7.90;99.90;;;;;;4968212;28;20023;-42
2021/10/10 05:00:36;;;;;;;26.00;19.95;;;7.90;99.90;;;;;;4978509;28;20046;-43
2021/10/10 05:03:03;;;;;;;25.70;19.67;;;7.80;99.90;;;;;;4967940;28;20538;-39
2021/10/10 05:05:28;;;;;;;25.30;19.92;;;7.80;99.90;;;;;;4978103;28;20054;-43
2021/10/10 05:07:54;;;;;;;25.60;19.05;;;7.80;99.90;;;;;;4969449;28;20390;-39
2021/10/10 05:10:19;;;;;;;26.40;20.65;;;7.80;99.90;;;;;;4982882;28;20370;-40
2021/10/10 05:12:45;;;;;;;28.50;21.05;;;7.80;99.90;;;;;;4970931;28;20370;-40
2021/10/10 05:15:10;;;;;;;26.60;20.48;;;7.70;99.90;;;;;;4980816;28;20022;-39
2021/10/10 05:17:36;;;;;;;27.17;20.85;;;7.70;99.90;;;;;;4972944;28;20031;-40
2021/10/10 05:20:02;;;;;;;27.27;20.55;;;7.70;99.90;;;;;;4977598;28;20040;-40
2021/10/10 05:22:28;;;;;;;28.42;21.25;;;7.70;99.90;;;;;;4975529;28;20093;-42
2021/10/10 05:24:57;;;;;;;29.52;21.42;;;7.70;99.90;;;;;;4974415;28;20514;-39
2021/10/10 05:27:22;;;;;;;29.23;22.30;;;7.70;99.90;;;;;;4978130;28;20114;-39
2021/10/10 05:29:48;;;;;;;30.77;21.00;;;7.70;99.90;;;;;;4973215;28;20468;-43
2021/10/10 05:32:13;;;;;;;29.17;20.75;;;7.70;99.90;;;;;;4980103;28;20070;-39
2021/10/10 05:34:39;;;;;;;28.85;21.58;;;7.70;99.90;;;;;;4971110;28;20080;-44
2021/10/10 05:37:04;;;;;;;26.75;20.85;;;7.70;99.90;;;;;;4988254;28;20045;-39
2021/10/10 05:39:30;;;;;;;26.13;20.80;;;7.70;99.90;;;;;;4988242;28;20081;-41
2021/10/10 05:41:55;;;;;;;28.77;21.48;;;7.70;99.90;;;;;;4978545;28;20113;-41
2021/10/10 05:44:21;;;;;;;27.38;20.50;;;7.70;99.90;;;;;;4990530;28;20133;-43
2021/10/10 05:46:46;;;;;;;30.35;21.75;;;7.70;99.90;;;;;;4976162;28;20089;-39
2021/10/10 05:49:12;;;;;;;28.35;21.30;;;7.60;99.90;;;;;;4990259;28;20062;-41
2021/10/10 05:51:37;;;;;;;29.98;21.40;;;7.60;99.90;;;;;;4977820;28;20089;-41
2021/10/10 05:54:04;;;;;;;25.95;20.98;;;7.60;99.90;;;;;;4988504;28;20033;-41
2021/10/10 05:56:32;;;;;;;27.95;20.45;;;7.50;99.90;;;;;;4980277;28;20028;-40
2021/10/10 05:59:03;;;;;;;28.50;21.27;;;7.50;99.90;;;;;;4987033;28;20054;-39
2021/10/10 06:01:29;;;;;;;28.75;20.40;;;7.50;99.90;;;;;;4981114;28;20026;-39
2021/10/10 06:03:55;;;;;;;28.30;21.27;;;7.50;99.90;;;;;;4984670;28;20042;-39
2021/10/10 06:06:20;;;;;;;29.17;21.02;;;7.50;99.90;;;;;;4984787;28;20022;-40
2021/10/10 06:08:46;;;;;;;27.02;19.92;;;7.50;99.90;;;;;;4981167;28;20034;-38
2021/10/10 06:11:11;;;;;;;28.73;20.90;;;7.50;99.90;;;;;;4987205;28;20031;-40
2021/10/10 06:13:38;;;;;;;30.33;21.08;;;7.50;99.90;;;;;;4978430;28;20049;-39
2021/10/10 06:16:08;;;;;;;28.30;21.30;;;7.50;99.90;;;;;;4987986;28;20109;-41
2021/10/10 06:18:33;;;;;;;30.05;21.92;;;7.50;99.90;;;;;;4977371;28;20567;-41
2021/10/10 06:20:59;;;;;;;28.90;22.33;;;7.50;99.90;;;;;;4987199;28;20536;-49
2021/10/10 06:23:25;;;;;;;28.67;21.73;;;7.50;99.90;;;;;;4978212;28;20437;-40
2021/10/10 06:25:50;;;;;;;31.05;21.95;;;7.50;99.90;;;;;;4989852;28;20045;-39
2021/10/10 06:28:16;;;;;;;29.25;22.17;;;7.60;99.90;;;;;;4976685;28;20045;-40
2021/10/10 06:30:41;;;;;;;31.70;22.77;;;7.60;99.90;;;;;;4989205;28;20022;-39
2021/10/10 06:33:07;;;;;;;31.45;23.55;;;7.70;99.90;;;;;;4976754;28;20035;-42
2021/10/10 06:35:32;;;;;;;28.08;22.13;;;7.80;99.90;;;;;;4968395;28;20023;-39
2021/10/10 06:37:58;;;;;;;29.73;22.08;;;7.90;99.90;;;;;;4979600;28;20100;-39
2021/10/10 06:40:23;;;;;;;31.52;21.73;;;7.90;99.90;;;;;;4972043;28;20041;-39
2021/10/10 06:42:49;;;;;;;31.35;21.42;;;8.00;99.90;;;;;;4975529;28;20033;-39
2021/10/10 06:45:14;;;;;;;29.42;21.40;;;8.00;99.90;;;;;;4974785;28;20085;-39
2021/10/10 06:47:40;;;;;;;37.67;24.02;;;8.00;99.90;;;;;;4972795;28;20023;-39
2021/10/10 06:50:06;;;;;;;36.42;22.45;;;8.00;99.90;;;;;;4976611;28;20042;-38
2021/10/10 06:52:32;;;;;;;30.50;21.90;;;8.00;99.90;;;;;;4970982;28;20042;-39
2021/10/10 06:54:57;;;;;;;47.30;21.08;;;8.10;99.90;;;;;;4979582;28;20019;-38
2021/10/10 06:57:25;;;;;;;40.55;21.83;;;8.10;99.90;;;;;;4970053;28;20014;-38
2021/10/10 06:59:53;;;;;;;39.80;20.50;;;8.10;99.90;;;;;;4980099;28;20031;-41
2021/10/10 07:02:18;;;;;;;25.65;20.30;;;8.20;99.90;;;;;;4969994;28;20042;-39
2021/10/10 07:04:44;;;;;;;29.17;21.10;;;8.20;99.90;;;;;;4978596;28;20054;-40
2021/10/10 07:07:10;;;;;;;26.98;20.42;;;8.20;99.90;;;;;;4969348;28;20058;-38
2021/10/10 07:09:35;;;;;;;27.42;20.27;;;8.30;99.90;;;;;;4980791;28;20052;-38
2021/10/10 07:12:01;;;;;;;28.20;20.52;;;8.30;99.90;;;;;;4968740;28;20027;-42
2021/10/10 07:14:26;;;;;;;24.98;20.00;;;8.40;99.90;;;;;;4980051;28;20404;-40
2021/10/10 07:16:52;;;;;;;27.25;19.42;;;8.40;99.90;;;;;;4968853;28;20046;-39
2021/10/10 07:19:23;;;;;;;24.55;17.80;;;8.50;99.90;;;;;;4977756;28;20137;-40
2021/10/10 07:21:57;;;;;;;22.13;17.23;;;8.50;99.90;;;;;;4971687;28;20899;-38
2021/10/10 07:27:07;;;;;;;23.25;18.10;;;8.70;99.90;;;;;;4970765;28;20057;-38
2021/10/10 07:29:32;;;;;;;24.98;19.60;;;8.70;99.90;;;;;;4976661;28;20030;-39
2021/10/10 07:31:58;;;;;;;25.50;19.13;;;8.70;99.90;;;;;;4971771;28;20058;-43
2021/10/10 07:34:23;;;;;;;44.85;19.45;;;8.80;99.90;;;;;;4974165;28;20022;-38
2021/10/10 07:36:49;;;;;;;23.98;17.83;;;8.80;99.90;;;;;;4978451;28;20046;-40
2021/10/10 07:39:14;;;;;;;24.90;18.70;;;8.80;99.90;;;;;;4983321;28;20487;-39
2021/10/10 07:41:40;;;;;;;24.00;18.50;;;8.80;99.90;;;;;;4977045;28;20034;-40
2021/10/10 07:44:08;;;;;;;24.30;17.25;;;8.80;99.90;;;;;;4970391;28;20035;-38
2021/10/10 07:46:36;;;;;;;23.90;17.02;;;8.90;99.90;;;;;;4975501;28;20108;-40
2021/10/10 07:49:02;;;;;;;23.33;19.10;;;8.90;99.90;;;;;;4986445;28;20079;-41
2021/10/10 07:51:28;;;;;;;22.73;19.00;;;9.00;99.90;;;;;;4976865;28;20048;-40
2021/10/10 07:53:54;;;;;;;22.50;17.90;;;9.00;99.90;;;;;;4987910;28;20039;-42
2021/10/10 07:56:20;;;;;;;23.02;17.92;;;9.10;99.90;;;;;;4975750;28;20034;-41
2021/10/10 07:58:46;;;;;;;21.90;18.10;;;9.20;99.90;;;;;;4987670;28;20437;-42
2021/10/10 08:01:11;;;;;;;22.52;18.30;;;9.20;99.90;;;;;;4974489;28;20485;-39
2021/10/10 08:03:37;;;;;;;22.83;17.50;;;9.20;99.90;;;;;;4986960;28;20029;-42
2021/10/10 08:06:02;;;;;;;22.70;18.63;;;9.30;99.90;;;;;;4976992;28;20122;-39
2021/10/10 08:08:28;;;;;;;20.23;16.80;;;9.30;99.90;;;;;;4985774;28;20397;-41
2021/10/10 08:10:53;;;;;;;21.40;17.63;;;9.30;99.90;;;;;;4979403;28;20027;-40
2021/10/10 08:13:19;;;;;;;21.73;18.08;;;9.40;99.90;;;;;;4982458;28;20458;-42
2021/10/10 08:15:44;;;;;;;21.77;18.45;;;9.40;99.90;;;;;;4981948;28;20038;-43
2021/10/10 08:18:10;;;;;;;23.15;18.00;;;9.50;99.90;;;;;;4980878;28;20030;-39
2021/10/10 08:20:36;;;;;;;23.63;18.63;;;9.50;99.90;;;;;;4983699;28;20034;-42
2021/10/10 08:23:02;;;;;;;21.30;17.73;;;9.60;99.90;;;;;;4979045;28;20093;-39
2021/10/10 08:25:30;;;;;;;20.60;17.83;;;9.70;99.90;;;;;;4985369;28;20043;-38
2021/10/10 08:27:56;;;;;;;22.20;17.63;;;9.70;99.90;;;;;;4975810;28;20104;-40
2021/10/10 08:30:21;;;;;;;22.52;18.40;;;9.80;99.90;;;;;;4986537;28;20030;-40
2021/10/10 08:32:48;;;;;;;22.40;19.02;;;9.80;99.90;;;;;;4976146;28;20097;-39
2021/10/10 08:35:14;;;;;;;23.20;18.33;;;9.90;99.90;;;;;;4986785;28;20034;-43
2021/10/10 08:37:39;;;;;;;22.08;18.45;;;9.90;99.90;;;;;;4980940;28;20035;-38
2021/10/10 08:40:06;;;;;;;21.40;17.70;;;9.90;99.90;;;;;;4987327;28;20038;-40
2021/10/10 08:42:35;;;;;;;21.45;17.75;;;10.10;99.90;;;;;;4975163;28;20101;-38
2021/10/10 08:45:13;;;;;;;23.13;18.10;;;10.10;99.90;;;;;;4991721;28;20030;-39
2021/10/10 08:47:44;;;;;;;24.60;18.33;;;10.20;99.90;;;;;;4978224;28;20026;-39
2021/10/10 08:50:18;;;;;;;24.65;18.33;;;10.30;99.90;;;;;;4990683;28;20030;-39
2021/10/10 08:52:45;;;;;;;22.58;17.35;;;10.40;99.90;;;;;;4978728;28;20100;-39
2021/10/10 08:55:11;;;;;;;21.30;17.55;;;10.60;99.90;;;;;;4991134;28;20038;-41
2021/10/10 08:57:37;;;;;;;22.35;18.80;;;10.70;99.90;;;;;;4980508;28;20034;-46
2021/10/10 09:00:10;;;;;;;23.30;18.48;;;10.80;99.90;;;;;;4988437;28;20027;-39
2021/10/10 09:02:35;;;;;;;24.23;18.95;;;10.90;99.90;;;;;;4982025;28;20050;-41
2021/10/10 09:05:08;;;;;;;22.15;18.95;;;11.10;99.90;;;;;;4986382;28;20140;-42
2021/10/10 09:07:36;;;;;;;21.42;18.10;;;11.10;99.90;;;;;;4983731;28;20670;-42
2021/10/10 09:10:20;;;;;;;24.02;19.17;;;11.20;99.90;;;;;;4984654;28;20114;-39
2021/10/10 09:12:47;;;;;;;25.05;20.25;;;11.30;99.90;;;;;;4983990;28;20192;-38
2021/10/10 09:15:17;;;;;;;22.42;18.30;;;11.40;99.90;;;;;;4984992;28;20104;-39
2021/10/10 09:17:57;;;;;;;25.02;19.90;;;11.40;99.90;;;;;;4984599;28;20026;-39
2021/10/10 09:20:33;;;;;;;23.67;19.83;;;11.40;99.90;;;;;;4985358;28;20033;-39
2021/10/10 09:23:00;;;;;;;24.77;19.55;;;11.40;99.90;;;;;;4985064;28;20112;-38
2021/10/10 09:25:26;;;;;;;25.02;19.80;;;11.40;99.90;;;;;;4982875;28;20041;-39
2021/10/10 09:27:52;;;;;;;25.95;20.70;;;11.50;99.90;;;;;;4986988;28;20019;-42
2021/10/10 09:30:21;;;;;;;25.40;20.08;;;11.40;99.90;;;;;;4980097;28;20053;-42
2021/10/10 09:32:46;;;;;;;25.40;20.45;;;11.50;99.90;;;;;;4971150;28;20033;-41
2021/10/10 09:35:30;;;;;;;27.42;22.48;;;11.50;99.90;;;;;;4982155;28;20113;-44
2021/10/10 09:38:22;;;;;;;25.15;20.30;;;11.60;99.90;;;;;;4979615;28;20054;-44
2021/10/10 09:40:59;;;;;;;26.47;21.47;;;11.70;99.90;;;;;;4982414;28;20029;-42
2021/10/10 09:43:25;;;;;;;24.42;19.83;;;11.70;99.90;;;;;;4986624;28;20286;-38
2021/10/10 09:45:54;;;;;;;25.50;20.92;;;11.80;99.90;;;;;;4980900;28;20038;-39
2021/10/10 09:48:34;;;;;;;26.15;19.75;;;11.80;99.90;;;;;;4988781;28;20429;-38
2021/10/10 09:51:00;;;;;;;23.52;19.48;;;11.70;99.90;;;;;;4981837;28;20028;-41
2021/10/10 09:53:33;;;;;;;24.77;20.27;;;11.70;99.90;;;;;;4987346;28;20022;-43
2021/10/10 09:56:05;;;;;;;26.67;20.80;;;11.60;99.90;;;;;;4980430;28;20029;-45
2021/10/10 09:58:35;;;;;;;23.90;19.80;;;11.60;99.90;;;;;;4988842;28;20382;-40
2021/10/10 10:01:14;;;;;;;26.88;21.00;;;11.50;99.90;;;;;;4982797;28;20097;-41
2021/10/10 10:04:06;;;;;;;30.08;21.92;;;11.50;99.90;;;;;;4970980;28;20031;-44
2021/10/10 10:06:34;;;;;;;26.38;22.08;;;11.50;99.90;;;;;;4980272;28;20077;-41
2021/10/10 10:09:02;;;;;;;26.65;22.13;;;11.50;99.90;;;;;;4989008;28;20101;-40
2021/10/10 10:11:35;;;;;;;25.35;20.50;;;11.50;99.90;;;;;;4979219;28;20072;-40
2021/10/10 10:14:08;;;;;;;27.42;21.33;;;11.60;99.90;;;;;;4987830;28;20030;-40
2021/10/10 10:16:42;;;;;;;26.40;19.95;;;11.60;99.90;;;;;;4978111;28;20033;-39
2021/10/10 10:19:22;;;;;;;30.13;23.73;;;11.60;99.90;;;;;;4988486;28;20026;-40
2021/10/10 10:21:50;;;;;;;29.33;22.80;;;11.70;99.90;;;;;;4978118;28;20014;-41
2021/10/10 10:24:18;;;;;;;28.75;22.38;;;11.80;99.90;;;;;;4987949;28;20053;-41
2021/10/10 10:26:43;;;;;;;32.75;25.35;;;11.80;99.90;;;;;;4977602;28;20073;-39
2021/10/10 10:29:18;;;;;;;27.88;23.02;;;11.80;99.90;;;;;;4989033;28;20030;-39
2021/10/10 10:31:46;;;;;;;26.75;22.30;;;11.90;99.90;;;;;;4980146;28;20074;-41
2021/10/10 10:34:31;;;;;;;29.88;23.52;;;12.00;99.90;;;;;;4969578;28;20029;-40
2021/10/10 10:37:09;;;;;;;30.13;22.73;;;12.00;99.90;;;;;;4983039;28;20026;-41
2021/10/10 10:39:41;;;;;;;29.35;22.55;;;12.10;99.90;;;;;;4986046;28;20023;-42
2021/10/10 10:42:13;;;;;;;21.85;17.73;;;12.20;99.90;;;;;;4981273;28;20023;-38
2021/10/10 10:44:38;;;;;;;27.13;20.00;;;12.30;99.90;;;;;;4980788;28;20061;-37
2021/10/10 10:47:12;;;;;;;23.98;18.95;;;12.30;99.90;;;;;;4984739;28;20537;-37
2021/10/10 10:49:51;;;;;;;24.52;18.88;;;12.40;99.90;;;;;;4980570;28;20038;-40
2021/10/10 10:52:54;;;;;;;25.92;20.95;;;12.40;99.90;;;;;;4976854;28;20117;-38
2021/10/10 10:55:37;;;;;;;28.15;21.52;;;12.50;99.90;;;;;;4979884;28;20038;-41
2021/10/10 10:58:05;;;;;;;27.80;21.33;;;12.60;99.90;;;;;;4973620;28;20030;-37
2021/10/10 11:00:40;;;;;;;28.10;21.17;;;12.60;99.90;;;;;;4983802;28;20045;-39
2021/10/10 11:03:14;;;;;;;27.50;23.00;;;12.70;99.90;;;;;;4985176;28;20121;-38
2021/10/10 11:05:57;;;;;;;27.27;20.27;;;12.80;99.90;;;;;;4983620;28;20054;-39
2021/10/10 11:08:22;;;;;;;;;;;12.80;99.90;;;;;;4980533;28;20039;-38
2021/10/10 11:11:00;;;;;;;23.52;17.98;;;12.90;99.90;;;;;;4978373;28;19910;-37
2021/10/10 11:13:31;;;;;;;27.23;21.13;;;13.00;99.90;;;;;;4979392;28;20041;-40
2021/10/10 11:16:03;;;;;;;21.55;17.65;;;13.10;99.90;;;;;;4981470;28;20113;-40
2021/10/10 11:18:29;;;;;;;30.52;24.00;;;13.20;99.90;;;;;;4979643;28;20026;-39
2021/10/10 11:20:57;;;;;;;34.53;23.95;;;13.30;99.90;;;;;;4969588;28;20482;-38
2021/10/10 11:23:24;;;;;;;33.80;25.58;;;13.40;99.90;;;;;;4979148;28;20482;-37
2021/10/10 11:25:51;;;;;;;34.50;25.00;;;13.50;99.90;;;;;;4974007;28;20042;-37
2021/10/10 11:28:33;;;;;;;28.23;21.33;;;13.60;99.90;;;;;;4977290;28;20026;-39
2021/10/10 11:31:08;;;;;;;26.13;20.35;;;13.70;99.90;;;;;;4967863;28;20560;-37
2021/10/10 11:33:38;;;;;;;27.52;19.95;;;13.80;99.90;;;;;;4975407;28;20030;-40
2021/10/10 11:36:04;;;;;;;26.10;19.00;;;13.80;99.90;;;;;;4988167;28;20018;-39
2021/10/10 11:38:46;;;;;;;25.88;17.80;;;13.90;99.90;;;;;;4974226;28;20366;-37
2021/10/10 11:41:12;;;;;;;23.23;17.75;;;13.90;99.90;;;;;;4984977;28;20027;-37
2021/10/10 11:43:37;;;;;;;23.50;17.25;;;13.90;99.90;;;;;;4981662;28;20121;-38
2021/10/10 11:46:03;;;;;;;22.02;16.58;;;13.90;99.90;;;;;;4967975;28;20363;-38
2021/10/10 11:48:32;;;;;;;18.30;14.05;;;13.90;99.90;;;;;;4970423;28;20058;-37
2021/10/10 11:50:57;;;;;;;23.55;17.33;;;14.00;99.90;;;;;;4969249;28;20031;-39
2021/10/10 11:53:44;;;;;;;23.10;16.27;;;14.10;99.90;;;;;;4970817;28;20029;-37
2021/10/10 11:56:10;;;;;;;21.80;16.60;;;14.20;99.90;;;;;;4986890;28;20034;-39
2021/10/10 11:58:36;;;;;;;21.02;16.42;;;14.20;99.90;;;;;;4976698;28;20363;-39
2021/10/10 12:01:11;;;;;;;24.10;15.85;;;14.40;99.90;;;;;;4984003;28;20030;-38
2021/10/10 12:03:45;;;;;;;21.38;15.63;;;14.50;99.90;;;;;;4978048;28;20029;-37
2021/10/10 12:06:19;;;;;;;24.80;17.70;;;14.60;99.90;;;;;;4983373;28;20153;-38
2021/10/10 12:08:45;;;;;;;20.85;15.95;;;14.70;99.90;;;;;;4979651;28;20426;-38
2021/10/10 12:11:11;;;;;;;26.08;18.80;;;14.80;99.90;;;;;;4983240;28;20480;-39
2021/10/10 12:13:50;;;;;;;27.98;18.63;;;14.90;99.90;;;;;;4980922;28;20031;-38
2021/10/10 12:16:16;;;;;;;28.67;19.08;;;14.90;99.90;;;;;;4984130;28;20045;-37
2021/10/10 12:18:41;;;;;;;26.45;19.65;;;14.90;99.90;;;;;;4986499;28;20023;-38
2021/10/10 12:21:17;;;;;;;28.63;20.30;;;15.00;99.90;;;;;;4984201;28;20057;-38
2021/10/10 12:23:42;;;;;;;28.77;19.88;;;15.10;99.90;;;;;;4988071;28;20030;-37
2021/10/10 12:26:11;;;;;;;27.85;19.52;;;15.10;99.90;;;;;;4982638;28;20035;-38
2021/10/10 12:28:36;;;;;;;26.48;19.05;;;15.10;99.90;;;;;;4988996;28;20405;-38
2021/10/10 12:31:02;;;;;;;25.38;19.20;;;15.10;99.90;;;;;;4980692;28;20041;-38
2021/10/10 12:33:42;;;;;;;27.38;19.50;;;15.10;99.90;;;;;;4988809;28;20048;-39
2021/10/10 12:36:14;;;;;;;26.88;19.40;;;15.10;99.90;;;;;;4973323;28;20042;-40
2021/10/10 12:38:40;;;;;;;25.55;18.23;;;15.10;99.90;;;;;;4985188;28;20117;-38